Time;durP1;ratioP1;P1;durP2;ratioP2;P2;SDS_P1;SDS_P2;PMS_P1;PMS_P2;Temp;Humidity;BMP_temperature;BMP_pressure;BME280_temperature;BME280_humidity;BME280_pressure;Samples;Min_cycle;Max_cycle;Signal;HPM_P1;HPM_P2
2022/07/29 00:00:03;;;;;;;1.75;1.00;;;13.90;1.00;;;;;;4976254;28;20085;-77
2022/07/29 00:02:29;;;;;;;1.90;0.90;;;14.00;1.00;;;;;;4994557;28;20568;-77
2022/07/29 00:04:54;;;;;;;4.45;1.00;;;13.90;1.00;;;;;;4994797;28;20027;-77
2022/07/29 00:07:20;;;;;;;1.20;0.93;;;14.00;1.00;;;;;;4994695;28;20022;-77
2022/07/29 00:09:46;;;;;;;1.00;0.77;;;14.00;1.00;;;;;;4994548;28;20363;-77
2022/07/29 00:12:11;;;;;;;1.67;0.90;;;14.00;1.00;;;;;;4993956;28;20378;-77
2022/07/29 00:14:37;;;;;;;1.73;0.95;;;13.90;1.00;;;;;;4994346;28;20026;-78
2022/07/29 00:17:03;;;;;;;1.50;0.98;;;14.00;1.00;;;;;;4994723;28;20026;-77
2022/07/29 00:19:28;;;;;;;1.75;0.90;;;14.00;1.00;;;;;;4994493;28;20069;-77
2022/07/29 00:21:54;;;;;;;2.10;1.25;;;14.00;1.00;;;;;;4994516;28;20108;-77
2022/07/29 00:24:19;;;;;;;2.58;1.10;;;14.10;1.00;;;;;;4994318;28;20033;-77
2022/07/29 00:26:45;;;;;;;7.07;1.83;;;14.00;1.00;;;;;;4994134;28;20018;-77
2022/07/29 00:29:10;;;;;;;2.22;1.10;;;14.00;1.00;;;;;;4994111;28;20722;-77
2022/07/29 00:31:36;;;;;;;2.00;1.20;;;14.00;1.00;;;;;;5036801;23;20081;-76
2022/07/29 00:34:02;;;;;;;0.82;0.80;;;14.10;1.00;;;;;;5052720;28;20033;-76
2022/07/29 00:36:28;;;;;;;2.70;1.30;;;14.10;1.00;;;;;;5052915;28;20108;-76
2022/07/29 00:38:54;;;;;;;2.33;1.23;;;14.20;1.00;;;;;;5052579;28;20637;-76
2022/07/29 00:41:20;;;;;;;1.13;1.02;;;14.10;1.00;;;;;;5052838;28;20029;-77
2022/07/29 00:43:46;;;;;;;1.67;1.20;;;14.20;1.00;;;;;;5053020;28;20021;-76
2022/07/29 00:46:11;;;;;;;1.80;1.38;;;14.20;1.00;;;;;;5052755;28;20027;-76
2022/07/29 00:48:37;;;;;;;3.15;1.50;;;14.20;1.00;;;;;;5061745;28;20438;-77
2022/07/29 00:51:05;;;;;;;1.17;1.05;;;14.20;1.00;;;;;;5052899;28;20033;-77
2022/07/29 00:53:31;;;;;;;2.50;1.20;;;14.20;1.00;;;;;;5052627;28;20071;-76
2022/07/29 00:55:58;;;;;;;2.33;1.20;;;14.30;1.00;;;;;;5052563;28;20511;-76
2022/07/29 00:58:26;;;;;;;1.70;1.10;;;14.20;1.00;;;;;;5052414;28;20463;-76
2022/07/29 01:00:52;;;;;;;4.43;1.13;;;14.30;1.00;;;;;;5052770;28;20348;-76
2022/07/29 01:03:18;;;;;;;2.53;1.17;;;14.30;1.00;;;;;;5052839;28;20112;-77
2022/07/29 01:05:45;;;;;;;2.28;1.30;;;14.30;1.00;;;;;;5052290;28;20097;-76
2022/07/29 01:08:12;;;;;;;2.28;0.90;;;14.30;1.00;;;;;;5052447;28;20021;-76
2022/07/29 01:10:39;;;;;;;3.55;1.38;;;14.20;1.00;;;;;;5052285;28;20037;-77
2022/07/29 01:13:05;;;;;;;3.10;1.35;;;14.30;1.00;;;;;;5052524;28;20017;-77
2022/07/29 01:15:31;;;;;;;1.77;0.85;;;14.40;1.00;;;;;;5052275;28;20033;-76
2022/07/29 01:18:11;;;;;;;1.27;1.00;;;14.40;1.00;;;;;;5052532;28;20025;-77
2022/07/29 01:21:01;;;;;;;3.55;1.10;;;14.40;1.00;;;;;;5052329;28;20033;-76
2022/07/29 01:23:45;;;;;;;;;;;14.50;1.00;;;;;;5053031;28;20048;-76
2022/07/29 01:26:31;;;;;;;3.20;1.13;;;14.40;1.00;;;;;;5056377;28;19909;-76
2022/07/29 01:29:01;;;;;;;1.70;1.20;;;14.30;1.00;;;;;;5056137;28;20349;-76
2022/07/29 01:31:47;;;;;;;4.53;1.25;;;14.30;1.00;;;;;;5053131;28;20037;-77
2022/07/29 01:34:22;;;;;;;2.95;1.20;;;14.40;1.00;;;;;;5016382;28;20030;-76
2022/07/29 01:36:54;;;;;;;2.22;1.00;;;14.40;1.00;;;;;;5026512;28;20025;-76
2022/07/29 01:39:33;;;;;;;1.42;1.10;;;14.30;1.00;;;;;;5036069;28;20021;-76
2022/07/29 01:42:20;;;;;;;2.75;1.02;;;14.40;1.00;;;;;;5016484;28;20030;-76
2022/07/29 01:45:04;;;;;;;4.00;1.15;;;14.40;1.00;;;;;;5016369;28;20029;-77
2022/07/29 01:47:37;;;;;;;2.42;1.20;;;14.40;1.00;;;;;;5016412;28;20030;-77
2022/07/29 01:50:07;;;;;;;2.45;1.38;;;14.40;1.00;;;;;;5016193;28;20032;-77
2022/07/29 01:52:55;;;;;;;1.42;1.00;;;14.40;1.00;;;;;;5030889;28;20034;-77
2022/07/29 01:55:24;;;;;;;2.22;1.40;;;14.40;1.00;;;;;;5035880;28;20095;-76
2022/07/29 01:57:49;;;;;;;3.03;1.38;;;14.40;1.00;;;;;;5035718;28;20025;-77
2022/07/29 02:00:16;;;;;;;1.77;1.10;;;14.40;1.00;;;;;;5035762;28;20024;-76
2022/07/29 02:02:45;;;;;;;5.40;1.23;;;14.40;1.00;;;;;;5035739;28;20018;-77
2022/07/29 02:05:13;;;;;;;3.97;1.20;;;14.40;1.00;;;;;;5035945;28;20515;-77
2022/07/29 02:07:41;;;;;;;2.58;1.00;;;14.40;1.00;;;;;;5035844;28;20048;-77
2022/07/29 02:10:09;;;;;;;6.78;1.42;;;14.40;1.00;;;;;;5035352;28;20041;-76
2022/07/29 02:12:36;;;;;;;1.67;1.10;;;14.40;1.00;;;;;;5035684;28;20095;-77
2022/07/29 02:15:04;;;;;;;4.78;1.52;;;14.30;1.00;;;;;;5035461;28;20028;-77
2022/07/29 02:17:51;;;;;;;2.13;1.50;;;14.40;1.00;;;;;;5035680;28;20062;-77
2022/07/29 02:20:17;;;;;;;2.33;1.33;;;14.40;1.00;;;;;;5015890;28;20033;-76
2022/07/29 02:22:44;;;;;;;2.40;1.30;;;14.50;1.00;;;;;;5015682;28;20026;-76
2022/07/29 02:25:11;;;;;;;1.63;1.38;;;14.50;1.00;;;;;;5015551;28;20022;-76
2022/07/29 02:27:39;;;;;;;3.97;1.40;;;14.50;1.00;;;;;;5015630;28;20716;-77
2022/07/29 02:30:06;;;;;;;2.55;1.30;;;14.50;1.00;;;;;;5026314;28;20370;-77
2022/07/29 02:32:35;;;;;;;2.90;1.35;;;14.50;1.00;;;;;;5035118;28;20041;-77
2022/07/29 02:35:02;;;;;;;3.17;1.45;;;14.40;1.00;;;;;;5034506;28;20377;-76
2022/07/29 02:37:28;;;;;;;1.88;1.65;;;14.40;1.00;;;;;;5034875;28;20028;-76
2022/07/29 02:39:56;;;;;;;2.13;1.23;;;14.40;1.00;;;;;;5035250;28;20104;-76
2022/07/29 02:42:23;;;;;;;2.40;1.25;;;14.40;1.00;;;;;;5034802;28;20049;-77
2022/07/29 02:44:49;;;;;;;3.53;1.55;;;14.30;1.00;;;;;;5034983;28;20022;-76
2022/07/29 02:47:30;;;;;;;3.05;1.40;;;14.20;1.00;;;;;;5034813;28;20026;-76
2022/07/29 02:50:13;;;;;;;3.95;1.60;;;14.20;1.00;;;;;;5014889;28;20549;-77
2022/07/29 02:52:45;;;;;;;3.97;1.63;;;14.20;1.00;;;;;;5017409;28;20034;-77
2022/07/29 02:55:24;;;;;;;2.10;1.50;;;14.20;1.00;;;;;;5034797;28;20028;-76
2022/07/29 02:58:05;;;;;;;4.40;1.50;;;14.10;1.00;;;;;;5034634;28;20136;-76
2022/07/29 03:00:34;;;;;;;6.20;1.92;;;14.10;1.00;;;;;;5015001;28;20030;-77
2022/07/29 03:03:03;;;;;;;3.67;1.60;;;14.10;1.00;;;;;;5014882;28;20026;-77
2022/07/29 03:05:30;;;;;;;3.58;1.90;;;14.10;1.00;;;;;;5023813;28;20022;-76
2022/07/29 03:08:06;;;;;;;2.45;1.60;;;14.10;1.00;;;;;;5034534;28;20049;-76
2022/07/29 03:10:33;;;;;;;1.77;1.60;;;14.10;1.00;;;;;;5034540;28;20026;-77
2022/07/29 03:13:00;;;;;;;4.57;1.73;;;14.20;1.00;;;;;;5034344;28;20117;-76
2022/07/29 03:15:27;;;;;;;2.95;1.60;;;14.20;1.00;;;;;;5034353;28;20025;-76
2022/07/29 03:17:53;;;;;;;3.75;1.70;;;14.20;1.00;;;;;;5034264;28;20017;-77
2022/07/29 03:20:19;;;;;;;2.25;1.50;;;14.20;1.00;;;;;;5044691;28;20025;-77
2022/07/29 03:22:48;;;;;;;3.90;1.80;;;14.20;1.00;;;;;;5050697;28;20018;-76
2022/07/29 03:25:16;;;;;;;4.88;1.77;;;14.20;1.00;;;;;;5034429;28;20036;-77
2022/07/29 03:27:42;;;;;;;4.97;1.58;;;14.10;1.00;;;;;;5030229;28;20029;-77
2022/07/29 03:30:09;;;;;;;1.70;1.42;;;14.10;1.00;;;;;;5014426;28;20033;-77
2022/07/29 03:32:35;;;;;;;2.00;1.30;;;14.10;1.00;;;;;;5014203;28;20050;-77
2022/07/29 03:35:01;;;;;;;2.42;1.50;;;14.00;1.00;;;;;;5014151;28;20022;-76
2022/07/29 03:37:27;;;;;;;2.63;1.85;;;14.00;1.00;;;;;;5014564;28;20026;-76
2022/07/29 03:39:56;;;;;;;3.60;1.65;;;13.90;1.00;;;;;;5032518;28;20026;-76
2022/07/29 03:42:25;;;;;;;2.33;1.48;;;13.90;1.00;;;;;;5033768;28;20164;-77
2022/07/29 03:44:52;;;;;;;4.15;1.77;;;13.90;1.00;;;;;;5033816;28;20245;-76
2022/07/29 03:47:22;;;;;;;3.65;1.52;;;13.90;1.00;;;;;;5033673;28;20041;-76
2022/07/29 03:49:50;;;;;;;4.70;1.80;;;13.80;1.00;;;;;;5033592;28;20026;-76
2022/07/29 03:52:16;;;;;;;3.17;1.50;;;13.80;1.00;;;;;;5033650;28;20057;-77
2022/07/29 03:54:42;;;;;;;2.45;1.75;;;13.80;1.00;;;;;;5033361;28;20100;-76
2022/07/29 03:57:10;;;;;;;3.30;1.45;;;13.80;1.00;;;;;;5033286;28;20450;-76
2022/07/29 03:59:37;;;;;;;2.22;1.83;;;13.80;1.00;;;;;;5033580;28;20031;-77
2022/07/29 04:02:05;;;;;;;2.92;1.50;;;13.80;1.00;;;;;;5033655;28;20576;-76
2022/07/29 04:04:34;;;;;;;5.20;1.75;;;13.90;1.00;;;;;;5033822;28;20100;-77
2022/07/29 04:07:00;;;;;;;3.87;1.80;;;13.80;1.00;;;;;;5033317;28;20036;-76
2022/07/29 04:09:26;;;;;;;5.45;3.10;;;13.80;1.00;;;;;;5033366;28;20476;-76
2022/07/29 04:11:52;;;;;;;3.08;1.70;;;13.90;1.00;;;;;;5033278;28;20025;-76
2022/07/29 04:14:18;;;;;;;2.45;1.63;;;13.80;1.00;;;;;;5033253;28;20025;-77
2022/07/29 04:16:43;;;;;;;3.60;1.50;;;13.90;1.00;;;;;;5033369;28;20022;-77
2022/07/29 04:19:09;;;;;;;2.20;1.40;;;13.90;1.00;;;;;;5030881;28;20024;-77
2022/07/29 04:21:39;;;;;;;2.78;1.52;;;14.00;1.00;;;;;;5033358;28;20025;-77
2022/07/29 04:24:05;;;;;;;3.53;1.90;;;14.00;1.00;;;;;;5033080;28;20040;-76
2022/07/29 04:26:31;;;;;;;2.47;1.40;;;14.10;1.00;;;;;;5032995;28;20040;-76
2022/07/29 04:28:56;;;;;;;1.77;1.50;;;14.10;1.00;;;;;;5033059;28;20033;-76
2022/07/29 04:31:22;;;;;;;3.38;1.40;;;14.10;1.00;;;;;;5032764;28;20468;-77
2022/07/29 04:33:47;;;;;;;2.70;1.45;;;14.20;1.00;;;;;;5033006;28;20385;-76
2022/07/29 04:36:13;;;;;;;1.50;1.20;;;14.20;1.00;;;;;;5032826;28;20025;-76
2022/07/29 04:38:39;;;;;;;2.15;1.42;;;14.30;1.00;;;;;;5032863;28;20025;-76
2022/07/29 04:41:06;;;;;;;2.70;1.40;;;14.30;1.00;;;;;;5032873;28;20021;-77
2022/07/29 04:43:33;;;;;;;3.67;1.83;;;14.40;1.00;;;;;;5033111;28;20100;-76
2022/07/29 04:45:59;;;;;;;2.10;1.25;;;14.40;1.00;;;;;;5032892;28;20025;-76
2022/07/29 04:48:25;;;;;;;2.50;1.60;;;14.40;1.00;;;;;;5032890;28;20026;-77
2022/07/29 04:50:50;;;;;;;7.95;1.40;;;14.40;1.00;;;;;;5032681;28;20029;-77
2022/07/29 04:53:16;;;;;;;2.05;1.45;;;14.50;1.00;;;;;;5032618;28;20028;-77
2022/07/29 04:55:41;;;;;;;2.67;1.45;;;14.50;1.00;;;;;;5032726;28;20100;-76
2022/07/29 04:58:07;;;;;;;2.97;1.33;;;14.60;1.00;;;;;;5032346;28;20088;-76
2022/07/29 05:00:33;;;;;;;1.83;1.23;;;14.60;1.00;;;;;;5032516;28;20075;-77
2022/07/29 05:02:58;;;;;;;4.05;1.50;;;14.70;1.00;;;;;;5032476;28;20060;-76
2022/07/29 05:05:24;;;;;;;6.63;1.45;;;14.70;1.00;;;;;;5032633;28;20109;-77
2022/07/29 05:07:49;;;;;;;2.00;1.20;;;14.80;1.00;;;;;;5032325;28;20091;-76
2022/07/29 05:10:15;;;;;;;4.28;1.38;;;14.90;1.00;;;;;;5032522;28;20037;-77
2022/07/29 05:12:40;;;;;;;3.78;1.50;;;15.00;1.00;;;;;;5032464;28;20111;-77
2022/07/29 05:15:06;;;;;;;1.98;1.27;;;15.10;1.00;;;;;;5032286;28;20418;-77
2022/07/29 05:17:32;;;;;;;2.78;1.58;;;15.30;1.00;;;;;;5032297;28;20492;-77
2022/07/29 05:19:57;;;;;;;4.90;1.80;;;15.40;1.00;;;;;;5016798;28;20057;-76
2022/07/29 05:22:23;;;;;;;1.80;1.30;;;15.50;1.00;;;;;;5011293;28;20022;-76
2022/07/29 05:24:48;;;;;;;2.70;1.17;;;15.70;1.00;;;;;;5012473;28;20057;-77
2022/07/29 05:27:14;;;;;;;4.45;1.55;;;15.60;1.00;;;;;;5026421;28;20026;-77
2022/07/29 05:29:40;;;;;;;2.55;1.13;;;15.90;1.00;;;;;;5036036;28;20468;-77
2022/07/29 05:32:06;;;;;;;3.15;1.17;;;16.30;1.00;;;;;;5030312;28;20132;-77
2022/07/29 05:34:32;;;;;;;2.60;1.15;;;16.90;1.00;;;;;;5031964;28;20064;-76
2022/07/29 05:36:58;;;;;;;1.45;1.15;;;17.50;1.00;;;;;;5022244;28;20067;-76
2022/07/29 05:39:24;;;;;;;2.22;1.45;;;17.50;1.00;;;;;;5031939;28;20041;-77
2022/07/29 05:41:50;;;;;;;2.55;1.30;;;18.90;99.90;;;;;;5032163;28;20052;-76
2022/07/29 05:44:15;;;;;;;2.25;1.27;;;19.20;99.90;;;;;;5031945;28;20018;-76
2022/07/29 05:46:41;;;;;;;2.53;1.40;;;18.50;99.90;;;;;;5032146;28;20021;-77
2022/07/29 05:49:07;;;;;;;2.38;1.20;;;18.60;99.90;;;;;;5032188;28;20034;-77
2022/07/29 05:51:36;;;;;;;2.08;1.02;;;19.20;99.90;;;;;;5032123;28;20014;-77
2022/07/29 05:54:02;;;;;;;5.63;1.30;;;19.50;99.90;;;;;;5031762;28;20050;-76
2022/07/29 05:56:28;;;;;;;2.13;1.25;;;19.80;99.90;;;;;;5012352;28;20435;-77
2022/07/29 05:58:53;;;;;;;3.42;1.30;;;20.60;99.90;;;;;;5017668;28;20077;-77
2022/07/29 06:01:19;;;;;;;2.28;1.08;;;21.60;99.90;;;;;;5012275;28;20338;-78
2022/07/29 06:03:45;;;;;;;2.53;0.93;;;22.90;99.90;;;;;;5027586;28;20030;-78
2022/07/29 06:06:11;;;;;;;1.98;0.80;;;23.70;99.90;;;;;;5044086;28;20006;-78
2022/07/29 06:08:36;;;;;;;3.15;0.98;;;22.40;99.90;;;;;;5053707;28;20037;-78
2022/07/29 06:11:03;;;;;;;1.40;1.10;;;22.60;99.90;;;;;;5051997;28;20051;-79
2022/07/29 06:13:29;;;;;;;1.67;0.90;;;25.70;99.90;;;;;;5049145;28;20026;-78
2022/07/29 06:15:55;;;;;;;2.25;1.10;;;24.90;99.90;;;;;;5035898;28;20024;-77
2022/07/29 06:18:23;;;;;;;2.35;1.10;;;23.00;99.90;;;;;;5015150;28;20026;-77
2022/07/29 06:20:55;;;;;;;4.32;1.17;;;21.50;99.90;;;;;;5015796;28;20014;-77
2022/07/29 06:23:21;;;;;;;1.45;0.82;;;21.30;99.90;;;;;;5015614;28;20050;-77
2022/07/29 06:25:47;;;;;;;3.42;1.00;;;20.70;99.90;;;;;;5015518;28;20048;-77
2022/07/29 06:28:13;;;;;;;3.50;1.10;;;20.70;99.90;;;;;;5028169;28;20017;-77
2022/07/29 06:30:39;;;;;;;6.55;1.27;;;21.00;99.90;;;;;;5035068;28;20033;-76
2022/07/29 06:33:05;;;;;;;3.60;1.10;;;20.60;99.90;;;;;;5035100;28;20131;-77
2022/07/29 06:35:33;;;;;;;2.90;1.05;;;20.40;99.90;;;;;;5035052;28;20049;-77
2022/07/29 06:37:59;;;;;;;2.63;0.98;;;20.80;99.90;;;;;;5034958;28;20057;-77
2022/07/29 06:43:08;;;;;;;3.38;2.05;;;20.40;99.90;;;;;;5034974;28;20045;-77
2022/07/29 06:45:34;;;;;;;4.53;1.23;;;20.60;99.90;;;;;;5030256;28;20022;-77
2022/07/29 06:47:59;;;;;;;3.38;1.30;;;20.90;99.90;;;;;;5026761;28;20032;-76
2022/07/29 06:50:25;;;;;;;3.58;1.55;;;21.10;99.90;;;;;;5034549;28;20033;-77
2022/07/29 06:52:51;;;;;;;2.20;1.10;;;21.70;99.90;;;;;;5034857;28;20105;-77
2022/07/29 06:55:19;;;;;;;3.85;1.02;;;21.70;99.90;;;;;;5034743;28;20476;-77
2022/07/29 06:57:45;;;;;;;4.13;1.10;;;20.90;99.90;;;;;;5034939;28;20017;-77
2022/07/29 07:00:11;;;;;;;3.40;1.15;;;20.50;99.90;;;;;;5034691;28;20087;-77
2022/07/29 07:02:36;;;;;;;2.55;1.00;;;20.10;99.90;;;;;;5034604;28;20056;-77
2022/07/29 07:05:02;;;;;;;3.65;1.10;;;19.90;99.90;;;;;;5015678;28;20029;-77
2022/07/29 07:07:28;;;;;;;3.22;0.90;;;19.90;99.90;;;;;;5015262;28;20135;-77
2022/07/29 07:09:54;;;;;;;4.32;1.23;;;19.70;99.90;;;;;;5029989;28;20037;-76
2022/07/29 07:12:19;;;;;;;3.33;1.10;;;19.60;99.90;;;;;;5015003;28;20030;-77
2022/07/29 07:14:45;;;;;;;2.75;1.50;;;19.60;99.90;;;;;;5020702;28;20096;-77
2022/07/29 07:17:10;;;;;;;3.85;1.10;;;19.60;99.90;;;;;;5034458;28;20099;-76
2022/07/29 07:19:36;;;;;;;2.33;1.02;;;19.60;99.90;;;;;;5034728;28;20109;-76
2022/07/29 07:22:02;;;;;;;2.28;1.00;;;19.60;99.90;;;;;;5034141;28;20021;-76
2022/07/29 07:24:27;;;;;;;3.97;1.40;;;19.80;99.90;;;;;;5034750;28;20030;-76
2022/07/29 07:26:53;;;;;;;2.45;1.17;;;19.40;99.90;;;;;;5034409;28;20108;-76
2022/07/29 07:29:18;;;;;;;2.45;1.23;;;19.50;99.90;;;;;;5034297;28;20033;-76
2022/07/29 07:31:45;;;;;;;9.25;1.25;;;19.50;99.90;;;;;;5034028;28;20026;-76
2022/07/29 07:34:11;;;;;;;3.97;1.20;;;19.60;99.90;;;;;;5034896;28;20018;-76
2022/07/29 07:36:36;;;;;;;4.20;1.08;;;19.50;99.90;;;;;;5034087;28;20025;-76
2022/07/29 07:39:03;;;;;;;2.50;0.85;;;19.50;99.90;;;;;;5033194;28;20032;-76
2022/07/29 07:41:28;;;;;;;1.90;0.90;;;19.10;99.90;;;;;;5034332;28;20025;-76
2022/07/29 07:43:54;;;;;;;2.25;1.20;;;19.10;99.90;;;;;;5027640;28;20030;-76
2022/07/29 07:46:20;;;;;;;3.35;1.20;;;19.20;99.90;;;;;;5033964;28;20574;-75
2022/07/29 07:48:45;;;;;;;4.47;1.27;;;19.30;99.90;;;;;;5033894;28;20361;-76
2022/07/29 07:51:11;;;;;;;3.17;1.15;;;19.30;99.90;;;;;;5033597;28;20029;-76
2022/07/29 07:53:37;;;;;;;3.17;1.30;;;19.40;99.90;;;;;;5033865;28;20021;-75
2022/07/29 07:56:04;;;;;;;3.28;1.85;;;19.60;99.90;;;;;;5033592;28;20072;-75
2022/07/29 07:58:29;;;;;;;3.80;1.15;;;19.70;99.90;;;;;;5033723;28;20025;-75
2022/07/29 08:00:55;;;;;;;3.10;1.85;;;19.70;99.90;;;;;;5030087;28;20044;-75
2022/07/29 08:03:21;;;;;;;1.30;0.95;;;19.80;99.90;;;;;;5013837;28;20109;-75
2022/07/29 08:05:47;;;;;;;3.58;1.30;;;20.00;99.90;;;;;;5013724;28;20398;-75
2022/07/29 08:08:13;;;;;;;3.00;1.42;;;20.30;99.90;;;;;;5038829;28;20025;-75
2022/07/29 08:10:58;;;;;;;2.13;1.35;;;21.00;99.90;;;;;;5053275;28;20029;-75
2022/07/29 08:13:27;;;;;;;3.55;1.17;;;21.50;99.90;;;;;;5053571;28;20028;-75
2022/07/29 08:16:01;;;;;;;3.33;1.15;;;22.00;99.90;;;;;;5044502;28;20024;-76
2022/07/29 08:18:29;;;;;;;3.50;1.35;;;21.60;99.90;;;;;;5033479;28;20029;-77
2022/07/29 08:20:54;;;;;;;1.92;1.73;;;21.60;99.90;;;;;;5031742;28;20029;-77
2022/07/29 08:23:20;;;;;;;3.63;1.25;;;21.40;99.90;;;;;;5032999;28;20117;-77
2022/07/29 08:25:46;;;;;;;2.70;1.40;;;21.40;99.90;;;;;;5033018;28;20092;-76
2022/07/29 08:28:12;;;;;;;3.20;1.00;;;21.10;99.90;;;;;;5032844;28;20416;-77
2022/07/29 08:30:37;;;;;;;3.40;1.60;;;20.90;99.90;;;;;;5032953;28;20041;-77
2022/07/29 08:33:03;;;;;;;3.72;1.42;;;21.10;99.90;;;;;;5031802;28;20099;-77
2022/07/29 08:35:29;;;;;;;3.38;1.40;;;21.20;99.90;;;;;;5032635;28;20033;-76
2022/07/29 08:37:56;;;;;;;4.28;1.80;;;20.90;99.90;;;;;;5032665;28;20013;-76
2022/07/29 08:40:23;;;;;;;3.95;1.45;;;20.80;99.90;;;;;;5025612;28;20104;-77
2022/07/29 08:42:49;;;;;;;5.03;1.40;;;20.80;99.90;;;;;;5033302;28;20028;-77
2022/07/29 08:45:15;;;;;;;2.78;1.38;;;20.70;99.90;;;;;;5032414;28;20648;-77
2022/07/29 08:47:44;;;;;;;3.70;1.42;;;21.00;99.90;;;;;;5032858;28;20022;-77
2022/07/29 08:50:10;;;;;;;7.78;1.38;;;21.00;99.90;;;;;;5032857;28;20101;-77
2022/07/29 08:52:38;;;;;;;3.25;1.38;;;20.80;99.90;;;;;;5032856;28;20018;-77
2022/07/29 08:55:05;;;;;;;4.10;1.40;;;20.90;99.90;;;;;;5032682;28;20029;-77
2022/07/29 08:57:33;;;;;;;2.58;1.38;;;20.60;99.90;;;;;;5032967;28;20036;-77
2022/07/29 09:00:02;;;;;;;3.38;1.45;;;20.70;99.90;;;;;;5032722;28;20021;-76
2022/07/29 09:02:32;;;;;;;4.32;1.30;;;20.70;99.90;;;;;;5032787;28;20026;-77
2022/07/29 09:05:01;;;;;;;4.38;1.35;;;20.60;99.90;;;;;;5032825;28;20117;-77
2022/07/29 09:07:26;;;;;;;5.53;1.48;;;20.50;99.90;;;;;;5032621;28;20025;-77
2022/07/29 09:09:52;;;;;;;2.97;1.45;;;20.60;99.90;;;;;;5032567;28;20036;-77
2022/07/29 09:12:18;;;;;;;3.60;1.60;;;20.30;99.90;;;;;;5032400;28;20053;-77
2022/07/29 09:14:43;;;;;;;7.03;1.83;;;20.10;99.90;;;;;;5032699;28;20029;-77
2022/07/29 09:17:09;;;;;;;3.17;1.33;;;20.10;99.90;;;;;;5032420;28;20053;-77
2022/07/29 09:19:37;;;;;;;2.53;1.40;;;20.30;99.90;;;;;;5032489;28;20388;-77
2022/07/29 09:22:05;;;;;;;5.07;1.65;;;20.40;99.90;;;;;;5022132;28;20053;-77
2022/07/29 09:24:47;;;;;;;5.30;1.52;;;20.20;99.90;;;;;;5012841;28;20370;-77
2022/07/29 09:27:21;;;;;;;1.75;1.40;;;20.40;99.90;;;;;;5012775;28;20014;-76
2022/07/29 09:29:58;;;;;;;2.15;1.65;;;20.30;99.90;;;;;;5019037;28;20025;-77
2022/07/29 09:32:24;;;;;;;5.07;1.45;;;20.20;99.90;;;;;;5032103;28;20045;-77
2022/07/29 09:34:49;;;;;;;4.03;1.60;;;20.20;99.90;;;;;;5032284;28;20388;-77
2022/07/29 09:37:28;;;;;;;5.47;1.67;;;20.20;99.90;;;;;;5032472;28;20516;-77
2022/07/29 09:39:55;;;;;;;;;;;20.20;99.90;;;;;;5032907;28;20541;-77
2022/07/29 09:42:32;;;;;;;3.78;1.20;;;20.00;99.90;;;;;;5032320;28;19948;-77
2022/07/29 09:44:58;;;;;;;3.55;1.60;;;20.20;99.90;;;;;;5034115;28;20017;-77
2022/07/29 09:47:49;;;;;;;3.25;1.33;;;20.00;99.90;;;;;;5035059;28;20081;-77
2022/07/29 09:50:15;;;;;;;4.10;1.70;;;20.10;99.90;;;;;;5036296;28;20022;-77
2022/07/29 09:52:46;;;;;;;4.38;1.50;;;20.10;99.90;;;;;;5036099;28;20108;-76
2022/07/29 09:55:12;;;;;;;7.30;1.83;;;20.40;99.90;;;;;;5036392;28;20029;-77
2022/07/29 09:57:38;;;;;;;3.95;1.77;;;20.40;99.90;;;;;;5036245;28;20021;-77
2022/07/29 10:00:10;;;;;;;4.90;1.70;;;20.40;99.90;;;;;;5036128;28;20036;-77
2022/07/29 10:02:38;;;;;;;4.13;1.77;;;20.20;99.90;;;;;;5036311;28;20018;-77
2022/07/29 10:05:06;;;;;;;3.78;1.60;;;20.00;99.90;;;;;;5036237;28;20068;-78
2022/07/29 10:07:57;;;;;;;2.83;1.70;;;20.10;99.90;;;;;;5036167;28;20583;-77
2022/07/29 10:10:28;;;;;;;3.95;1.67;;;20.30;99.90;;;;;;5036118;28;20049;-77
2022/07/29 10:12:57;;;;;;;3.50;1.70;;;20.30;99.90;;;;;;5036780;28;20039;-77
2022/07/29 10:15:24;;;;;;;2.17;1.40;;;20.40;99.90;;;;;;5035568;28;20025;-78
2022/07/29 10:17:51;;;;;;;2.63;1.50;;;20.30;99.90;;;;;;5035636;28;20086;-77
2022/07/29 10:20:17;;;;;;;2.33;1.70;;;20.40;99.90;;;;;;5035769;28;20030;-77
2022/07/29 10:22:43;;;;;;;2.28;1.55;;;20.40;99.90;;;;;;5035389;28;20028;-77
2022/07/29 10:25:09;;;;;;;5.55;1.67;;;20.60;99.90;;;;;;5035473;28;20488;-78
2022/07/29 10:27:36;;;;;;;2.40;1.60;;;20.70;99.90;;;;;;5035783;28;20034;-77
2022/07/29 10:30:04;;;;;;;4.28;2.03;;;20.80;99.90;;;;;;5035138;28;20033;-77
2022/07/29 10:32:43;;;;;;;3.13;1.67;;;21.00;99.90;;;;;;5020833;28;20068;-77
2022/07/29 10:35:37;;;;;;;5.95;2.28;;;21.50;99.90;;;;;;5015466;28;20030;-77
2022/07/29 10:38:26;;;;;;;6.38;2.13;;;21.70;99.90;;;;;;5015329;28;20041;-77
2022/07/29 10:41:26;;;;;;;3.90;2.03;;;22.40;99.90;;;;;;5035184;28;20021;-77
2022/07/29 10:43:56;;;;;;;3.58;1.95;;;22.30;99.90;;;;;;5029574;28;20033;-78
2022/07/29 10:46:22;;;;;;;3.97;1.58;;;22.50;99.90;;;;;;5025685;28;20120;-78
2022/07/29 10:49:11;;;;;;;5.10;1.73;;;22.60;99.90;;;;;;5036505;28;20045;-78
2022/07/29 10:51:57;;;;;;;2.85;1.60;;;22.40;99.90;;;;;;5036432;28;20022;-78
2022/07/29 10:54:35;;;;;;;5.75;1.95;;;22.30;99.90;;;;;;5025982;28;20013;-78
2022/07/29 10:57:30;;;;;;;3.28;2.13;;;22.40;99.90;;;;;;5034528;28;20053;-77
2022/07/29 11:00:03;;;;;;;6.25;2.10;;;22.50;99.90;;;;;;5034557;28;20018;-78
2022/07/29 11:05:06;;;;;;;5.38;2.60;;;22.30;99.90;;;;;;5015082;28;20030;-78
2022/07/29 11:07:35;;;;;;;3.28;1.73;;;22.10;99.90;;;;;;5015111;28;20101;-78
2022/07/29 11:10:13;;;;;;;2.88;2.45;;;22.10;99.90;;;;;;5014709;28;20042;-78
2022/07/29 11:12:39;;;;;;;3.22;2.08;;;21.90;99.90;;;;;;5015050;28;20029;-78
2022/07/29 11:15:20;;;;;;;4.07;2.30;;;22.00;99.90;;;;;;5032542;28;20025;-78
2022/07/29 11:18:04;;;;;;;3.40;2.20;;;22.00;99.90;;;;;;5014895;28;20385;-78
2022/07/29 11:20:45;;;;;;;6.15;2.22;;;22.00;99.90;;;;;;5031361;28;20029;-79
2022/07/29 11:23:19;;;;;;;4.28;2.35;;;22.10;99.90;;;;;;5033636;28;20169;-78
2022/07/29 11:26:06;;;;;;;2.83;2.17;;;21.90;99.90;;;;;;5032992;28;20029;-78
2022/07/29 11:28:33;;;;;;;4.78;2.22;;;22.30;99.90;;;;;;5025277;28;20057;-76
2022/07/29 11:31:00;;;;;;;4.60;2.17;;;22.50;99.90;;;;;;5016448;28;20038;-76
2022/07/29 11:33:33;;;;;;;3.70;2.00;;;22.40;99.90;;;;;;5024909;28;20042;-76
2022/07/29 11:36:09;;;;;;;3.28;2.00;;;22.30;99.90;;;;;;5018817;28;20022;-76
2022/07/29 11:38:35;;;;;;;8.02;2.63;;;22.50;99.90;;;;;;5026014;28;20014;-76
2022/07/29 11:41:19;;;;;;;5.05;2.33;;;22.20;99.90;;;;;;5032910;28;20437;-76
2022/07/29 11:43:53;;;;;;;8.13;2.42;;;22.30;99.90;;;;;;5035712;28;20564;-76
2022/07/29 11:46:48;;;;;;;6.20;2.45;;;22.30;99.90;;;;;;5052897;28;20506;-76
2022/07/29 11:49:26;;;;;;;5.05;2.67;;;22.50;99.90;;;;;;5019767;28;20069;-76
2022/07/29 11:51:53;;;;;;;3.60;2.22;;;22.60;99.90;;;;;;5032768;28;20025;-76
2022/07/29 11:54:26;;;;;;;6.22;2.30;;;22.90;99.90;;;;;;5032872;28;20017;-76
2022/07/29 11:56:52;;;;;;;4.25;2.85;;;22.80;99.90;;;;;;5032851;28;20013;-76
2022/07/29 11:59:22;;;;;;;3.90;2.20;;;22.90;99.90;;;;;;5029716;28;20029;-76
2022/07/29 12:01:54;;;;;;;5.53;2.60;;;22.70;99.90;;;;;;5025794;28;20021;-77
2022/07/29 12:04:20;;;;;;;5.35;2.30;;;23.00;99.90;;;;;;5025665;28;20108;-77
2022/07/29 12:06:53;;;;;;;4.88;2.22;;;23.00;99.90;;;;;;5033563;28;20569;-77
2022/07/29 12:09:19;;;;;;;2.88;2.40;;;22.90;99.90;;;;;;5027819;28;20034;-77
2022/07/29 12:11:46;;;;;;;4.13;2.47;;;23.00;99.90;;;;;;5021178;28;20462;-77
2022/07/29 12:14:28;;;;;;;4.68;2.25;;;23.00;99.90;;;;;;5019894;28;20022;-77
2022/07/29 12:16:54;;;;;;;7.10;2.75;;;23.10;99.90;;;;;;5020861;28;20071;-77
2022/07/29 12:19:19;;;;;;;5.90;2.45;;;23.20;99.90;;;;;;5026077;28;20474;-77
2022/07/29 12:21:46;;;;;;;6.45;2.75;;;23.30;99.90;;;;;;5028437;28;20025;-78
2022/07/29 12:24:12;;;;;;;6.97;3.13;;;23.30;99.90;;;;;;5032394;28;20384;-77
2022/07/29 12:26:52;;;;;;;5.10;2.60;;;23.30;99.90;;;;;;5032475;28;20041;-77
2022/07/29 12:29:18;;;;;;;6.28;2.63;;;23.40;99.90;;;;;;5025538;28;20076;-77
2022/07/29 12:31:44;;;;;;;6.55;2.90;;;23.70;99.90;;;;;;5032055;28;20048;-77
2022/07/29 12:34:15;;;;;;;5.50;2.40;;;23.50;99.90;;;;;;5032165;28;20065;-77
2022/07/29 12:36:42;;;;;;;9.52;3.00;;;23.50;99.90;;;;;;5032207;28;20037;-77
2022/07/29 12:39:09;;;;;;;4.20;2.60;;;23.40;99.90;;;;;;5032144;28;20436;-77
2022/07/29 12:41:35;;;;;;;4.78;2.53;;;23.40;99.90;;;;;;5032073;28;20037;-77
2022/07/29 12:44:00;;;;;;;5.75;3.33;;;23.60;99.90;;;;;;5048573;28;20025;-77
2022/07/29 12:46:26;;;;;;;3.88;2.40;;;23.40;99.90;;;;;;5032086;28;20066;-77
2022/07/29 12:48:58;;;;;;;5.03;2.83;;;23.60;99.90;;;;;;5031936;28;20037;-77
2022/07/29 12:51:31;;;;;;;5.07;2.47;;;23.70;99.90;;;;;;5032087;28;20041;-77
2022/07/29 12:54:10;;;;;;;3.17;2.53;;;23.90;99.90;;;;;;5032208;28;20132;-77
2022/07/29 12:56:43;;;;;;;5.22;3.15;;;24.10;99.90;;;;;;5032089;28;20025;-77
2022/07/29 12:59:19;;;;;;;4.55;2.67;;;24.30;99.90;;;;;;5010848;28;20088;-77
2022/07/29 13:01:49;;;;;;;8.23;2.83;;;24.90;99.90;;;;;;5014447;28;20057;-77
2022/07/29 13:04:28;;;;;;;;;;;25.00;99.90;;;;;;5032348;28;20017;-77
2022/07/29 13:07:07;;;;;;;6.15;2.55;;;26.00;99.90;;;;;;5031909;28;19943;-77